Discovery — 3FII9 — position and weather

sailwx.info

Track history (hours):
 
Tides and Currents Weather Stations Pressure Air Temp Water Temp Dewpoint Dewpoint Depression Visibility Wind Speed Wind Dir Waves Ship Positions

Discovery

Operator: V Ships Leisure SAM

Last reported at 2020-Aug-02 10:18 UTC. Time now 2020-Aug-09 05:26 UTC.
Position N 33°58' E 128°41'.

Length 177 m; draft 10.2 m.

Type: Cargo ship. MMSI: 353389000.

Date/timePositionNaut miles runAvg speedWind from/ knotsBaromVisibWave heightAir tempDewpointWater temp
2020-Aug-02 10:18N 33°58' E 128°41'612.3
2020-Aug-02 09:47N 33°53' E 128°38'316 6.6
2020-Jul-31 10:00N 33°60' E 134°58'12 0.3
2020-Jul-29 20:58N 34°09' E 135°07'0 0.0
2020-Jul-29 20:28N 34°09' E 135°07'0 0.0
2020-Jul-29 19:28N 34°09' E 135°07'0 0.1
2020-Jul-29 16:58N 34°09' E 135°07'0 0.1
2020-Jul-29 16:28N 34°09' E 135°07'0 0.0
2020-Jul-29 15:28N 34°09' E 135°07'0 0.0
2020-Jul-29 14:28N 34°09' E 135°07'0 0.0
2020-Jul-29 09:28N 34°09' E 135°07'0 0.0
2020-Jul-29 04:55N 34°09' E 135°07'0 0.0
2020-Jul-29 02:58N 34°09' E 135°07'0 0.1
2020-Jul-29 00:58N 34°09' E 135°07'0 0.0
2020-Jul-28 23:28N 34°09' E 135°07'0 0.0
2020-Jul-28 19:28N 34°09' E 135°07'0 0.0
2020-Jul-28 16:58N 34°09' E 135°07'7 3.8
2020-Jul-28 15:00N 34°14' E 135°01'2110.5
2020-Jul-28 13:00N 34°35' E 135°04'2113.7
2020-Jul-28 11:30N 34°30' E 134°40'714.4
2020-Jul-28 11:00N 34°28' E 134°32'714.2
2020-Jul-28 10:30N 34°25' E 134°24'  
2020-Jul-23 20:00N 34°37' E 135°02'37 8.1
2020-Jul-23 15:29N 34°00' E 134°57'  
Track history (hours):
 
Tides and Currents Weather Stations Pressure Air Temp Water Temp Dewpoint Dewpoint Depression Visibility Wind Speed Wind Dir Waves Ship Positions

Discovery

Operator: V Ships Leisure SAM

Last reported at 2020-Aug-02 10:18 UTC. Time now 2020-Aug-09 05:26 UTC.
Position N 33°58' E 128°41'.

Length 177 m; draft 10.2 m.

Type: Cargo ship. MMSI: 353389000.

Date/timePositionNaut miles runAvg speedWind from/ knotsBaromVisibWave heightAir tempDewpointWater temp
2020-Aug-02 10:18N 33°58' E 128°41'612.3
2020-Aug-02 09:47N 33°53' E 128°38'316 6.6
2020-Jul-31 10:00N 33°60' E 134°58'12 0.3
2020-Jul-29 20:58N 34°09' E 135°07'0 0.0
2020-Jul-29 20:28N 34°09' E 135°07'0 0.0
2020-Jul-29 19:28N 34°09' E 135°07'0 0.1
2020-Jul-29 16:58N 34°09' E 135°07'0 0.1
2020-Jul-29 16:28N 34°09' E 135°07'0 0.0
2020-Jul-29 15:28N 34°09' E 135°07'0 0.0
2020-Jul-29 14:28N 34°09' E 135°07'0 0.0
2020-Jul-29 09:28N 34°09' E 135°07'0 0.0
2020-Jul-29 04:55N 34°09' E 135°07'0 0.0
2020-Jul-29 02:58N 34°09' E 135°07'0 0.1
2020-Jul-29 00:58N 34°09' E 135°07'0 0.0
2020-Jul-28 23:28N 34°09' E 135°07'0 0.0
2020-Jul-28 19:28N 34°09' E 135°07'0 0.0
2020-Jul-28 16:58N 34°09' E 135°07'7 3.8
2020-Jul-28 15:00N 34°14' E 135°01'2110.5
2020-Jul-28 13:00N 34°35' E 135°04'2113.7
2020-Jul-28 11:30N 34°30' E 134°40'714.4
2020-Jul-28 11:00N 34°28' E 134°32'714.2
2020-Jul-28 10:30N 34°25' E 134°24'  
2020-Jul-23 20:00N 34°37' E 135°02'37 8.1
2020-Jul-23 15:29N 34°00' E 134°57'  

Dump ship's entire track history